Guarulhos - Governador André Franco Montoro International Airport

SBGR · São Paulo, Brazil

METAR history SBGR · Guarulhos - Governador André Franco Montoro International Airport

Below you see METARs of the last few days. Select a year to browse through older METARs, from the year 2007 onwards.

March 2, 2024

Time Code Weather Temp. Visibility Ceiling Wind METAR/SPECI
16:00
V
29 °C 10 km+ - 130° 130° 5 kt METAR SBGR 021900Z 13005KT 9999 SCT040 29/18 Q1015
15:00
V
28 °C 10 km+ - 140° 140° 4 kt METAR SBGR 021800Z 14004KT 9999 SCT040 28/17 Q1016
14:00
V
27 °C 10 km+ - 060° 060° 5 kt METAR SBGR 021700Z 06005KT 9999 SCT040 27/17 Q1016
13:00
V
26 °C 10 km+ 4,000 ft 100° 100° 6 kt METAR SBGR 021600Z 10006KT 9999 BKN040 26/17 Q1017
12:00
V
26 °C 10 km+ 4,000 ft 090° 090° 6 kt METAR SBGR 021500Z 09006KT 9999 BKN040 26/17 Q1018
11:00
V
25 °C 10 km+ 3,500 ft 150° 150° 7 kt METAR SBGR 021400Z 15007KT 9999 BKN035 25/17 Q1018
10:00
M
24 °C 10 km+ 3,000 ft 110° 110° 7 kt METAR SBGR 021300Z 11007KT 9999 BKN030 24/17 Q1019
09:00
M
22 °C 10 km+ 2,600 ft 130° 130° 6 kt METAR SBGR 021200Z 13006KT 9999 BKN026 22/17 Q1018
08:00
M
22 °C 10 km+ 1,700 ft 110° 110° 5 kt METAR SBGR 021100Z 11005KT 9999 BKN017 22/18 Q1018
07:00
M
21 °C 10 km+ 1,700 ft 100° 100° 3 kt METAR SBGR 021000Z 10003KT 9999 SCT012 BKN017 21/18 Q1017
06:00
M
20 °C 10 km+ 1,400 ft 080° 080° 4 kt METAR SBGR 020900Z 08004KT 9999 OVC014 20/18 Q1017
05:20
M
20 °C 10 km+ 1,300 ft 060° 060° 5 kt METAR SBGR 020820Z 06005KT 9999 OVC013 20/19 Q1016
05:00
M
20 °C 10 km+ 1,500 ft 060° 060° 5 kt METAR SBGR 020800Z 06005KT 9999 BKN015 20/19 Q1016
04:00
V
20 °C 10 km+ - 110° 110° 4 kt METAR SBGR 020700Z 11004KT 9999 SCT017 20/18 Q1016
03:00
V
20 °C 10 km+ - 120° 120° 4 kt METAR SBGR 020600Z 12004KT 9999 SCT012 20/18 Q1017
02:00
M
21 °C 10 km+ 1,200 ft 090° 090° 5 kt METAR SBGR 020500Z 09005KT 9999 BKN012 21/19 Q1017
01:00
M
21 °C 10 km+ 1,400 ft 110° 110° 4 kt METAR SBGR 020400Z 11004KT 9999 BKN014 21/19 Q1018
00:00
M
20 °C 10 km+ 1,700 ft 150° 150° 2 kt METAR SBGR 020300Z 15002KT 9999 BKN017 20/18 Q1018

March 1, 2024

Time Code Weather Temp. Visibility Ceiling Wind METAR/SPECI
23:00
V
21 °C 10 km+ - 130° 130° 4 kt METAR SBGR 020200Z 13004KT 9999 FEW015 21/18 Q1018
22:00
V
21 °C 10 km+ - 120° 120° 5 kt METAR SBGR 020100Z 12005KT 9999 FEW010 SCT020 21/19 Q1018
21:00
M
22 °C 10 km+ 2,000 ft 140° 140° 4 kt METAR SBGR 020000Z 14004KT 9999 FEW010 BKN020 22/20 Q1018
20:00
M
21 °C 10 km+ 1,000 ft 160° 160° 6 kt METAR SBGR 012300Z 16006KT 9999 3000E -RA BKN010 OVC015 21/20 Q1017
19:42
I
21 °C 4 km 1,700 ft 160° 160° 8 kt METAR SBGR 012242Z 16008KT 4000 -RA BR SCT008 OVC017 21/20 Q1017
19:00
V
23 °C 10 km+ - 170° 170° 4 kt METAR SBGR 012200Z 17004KT 9999 SCT020 23/19 Q1017
18:00
M
24 °C 10 km+ 2,500 ft 160° 160° 8 kt METAR SBGR 012100Z 16008KT 9999 BKN025 24/19 Q1016
17:00
V
25 °C 10 km+ - 160° 160° 6 kt METAR SBGR 012000Z 16006KT 9999 SCT023 FEW050TCU 25/21 Q1015
16:00
M
24 °C 10 km+ 2,000 ft 170° 170° 10 kt METAR SBGR 011900Z 17010KT 9999 -RA VCSH BKN020 FEW040TCU BKN080 24/22 Q1015 RERA
15:45
M
24 °C 5 km 2,000 ft 170° 170° 9 - 21 kt METAR SBGR 011845Z 17009G21KT 5000 RA BR BKN020 FEW040TCU BKN080 24/21 Q1015
15:00
V
29 °C 10 km+ 4,000 ft 210° 210° 8 kt METAR SBGR 011800Z 21008KT 9999 BKN040 FEW050TCU 29/21 Q1014
14:00
V
30 °C 10 km+ 4,500 ft 180° 180° 6 kt METAR SBGR 011700Z 18006KT 9999 BKN045 FEW050TCU 30/20 Q1015
13:00
V
29 °C 10 km+ 4,500 ft 190° 190° 7 kt METAR SBGR 011600Z 19007KT 9999 BKN045 29/20 Q1016
12:00
V
28 °C 10 km+ 4,000 ft 200° 200° 6 kt METAR SBGR 011500Z 20006KT 9999 BKN040 28/20 Q1016
11:00
V
28 °C 10 km+ 3,500 ft 220° 220° 5 kt METAR SBGR 011400Z 22005KT 9999 BKN035 28/20 Q1017
10:00
M
27 °C 10 km+ 2,500 ft 210° 210° 4 kt METAR SBGR 011300Z 21004KT 9999 BKN025 27/21 Q1016
09:00
V
26 °C 10 km+ - 230° 230° 4 kt METAR SBGR 011200Z 23004KT 9999 FEW020 26/21 Q1016
08:00
V
24 °C 10 km+ - 270° 270° 3 kt METAR SBGR 011100Z 27003KT CAVOK 24/21 Q1016
07:00
V
22 °C 10 km+ - 310° 310° 2 kt METAR SBGR 011000Z 31002KT CAVOK 22/20 Q1015
06:00
V
21 °C 10 km+ - 360° 360° 0 kt METAR SBGR 010900Z 00000KT CAVOK 21/20 Q1015
05:00
V
22 °C 10 km+ - 340° 340° 4 kt METAR SBGR 010800Z 34004KT CAVOK 22/20 Q1014
04:00
V
21 °C 10 km+ - 360° 360° 0 kt METAR SBGR 010700Z 00000KT CAVOK 21/20 Q1014
03:00
V
22 °C 10 km+ - 300° 300° 3 kt METAR SBGR 010600Z 30003KT CAVOK 22/20 Q1015
02:00
V
23 °C 10 km+ - 010° 010° 6 kt METAR SBGR 010500Z 01006KT 9999 SCT013 23/20 Q1016
01:00
M
23 °C 10 km+ 1,300 ft 350° 350° 6 kt METAR SBGR 010400Z 35006KT 9999 OVC013 23/21 Q1017
00:00
M
23 °C 10 km+ 1,700 ft 110° 110° 5 kt METAR SBGR 010300Z 11005KT 9999 BKN017 BKN100 23/21 Q1017

February 29, 2024

Time Code Weather Temp. Visibility Ceiling Wind METAR/SPECI
23:00
V
23 °C 10 km+ 10,000 ft 140° 140° 3 kt METAR SBGR 010200Z 14003KT 9999 SCT015 BKN100 23/21 Q1017
22:00
V
23 °C 10 km+ 10,000 ft 090° 090° 3 kt METAR SBGR 010100Z 09003KT 9999 FEW015 BKN100 23/21 Q1017
21:00
V
23 °C 10 km+ - 120° 120° 3 kt METAR SBGR 010000Z 12003KT CAVOK 23/21 Q1016
20:00
V
23 °C 10 km+ - 160° 160° 3 kt METAR SBGR 292300Z 16003KT 9999 VCTS FEW020 FEW050CB 23/21 Q1014
19:00
V
24 °C 9 km - 170° 170° 6 kt METAR SBGR 292200Z 17006KT 9000 VCTS FEW017 FEW050CB 24/21 Q1013
18:00
V
27 °C 9 km - 180° 180° 7 kt METAR SBGR 292100Z 18007KT 9000 4000E NSC 27/22 Q1015
17:00
V
30 °C 10 km+ - 160° 160° 7 kt METAR SBGR 292000Z 16007KT CAVOK 30/22 Q1014
16:00
V
31 °C 10 km+ - 190° 190° 5 kt METAR SBGR 291900Z 19005KT CAVOK 31/18 Q1014
15:00
V
32 °C 10 km+ - 240° 240° 5 kt METAR SBGR 291800Z 24005KT 9999 SCT049 32/19 Q1015
14:00
V
31 °C 10 km+ - 220° 220° 5 kt METAR SBGR 291700Z 22005KT 9999 FEW046 31/20 Q1016
13:00
V
30 °C 10 km+ - 350° 350° 4 kt METAR SBGR 291600Z 35004KT 9999 FEW030 30/21 Q1016
12:00
V
28 °C 10 km+ - 280° 280° 6 kt METAR SBGR 291500Z 28006KT 9999 SCT030 28/21 Q1017
11:00
M
26 °C 10 km+ 2,500 ft 210° 210° 4 kt METAR SBGR 291400Z 21004KT 9999 OVC025 26/21 Q1019
10:00
M
26 °C 10 km+ 2,000 ft 290° 290° 2 kt METAR SBGR 291300Z 29002KT 9999 3000NE FEW015 OVC020 26/22 Q1018
09:00
M
25 °C 10 km+ 2,000 ft 120° 120° 3 kt METAR SBGR 291200Z 12003KT 9999 3000NE SCT013 OVC020 25/22 Q1018
08:00
I
24 °C 5 km 900 ft 140° 140° 2 kt METAR SBGR 291100Z 14002KT 5000 BR BKN009 OVC020 24/22 Q1018
07:00
M
23 °C 6 km 8,000 ft 180° 180° 2 kt METAR SBGR 291000Z 18002KT 6000 SCT013 BKN080 23/22 Q1017
06:00
M
22 °C 5 km 10,000 ft 100° 100° 1 kt METAR SBGR 290900Z 10001KT 5000 BR SCT036 BKN100 22/22 Q1016
05:00
M
23 °C 7 km 3,600 ft 130° 130° 1 kt METAR SBGR 290800Z 13001KT 7000 BKN036 23/22 Q1016
04:00
M
22 °C 8 km 1,700 ft 190° 190° 1 kt METAR SBGR 290700Z 19001KT 8000 BKN017 BKN036 22/22 Q1016
03:00
V
22 °C 8 km - 140° 140° 1 kt METAR SBGR 290600Z 14001KT 8000 NSC 22/22 Q1016